createdAt,value
2018-06-16T00:00:28.750Z,7.60
2018-06-16T00:02:57.214Z,7.20
2018-06-16T00:05:25.977Z,7.07
2018-06-16T00:07:54.582Z,8.63
2018-06-16T00:10:23.279Z,9.37
2018-06-16T00:12:51.711Z,6.60
2018-06-16T00:15:20.082Z,7.53
2018-06-16T00:17:48.590Z,7.50
2018-06-16T00:20:17.065Z,8.17
2018-06-16T00:22:45.753Z,7.57
2018-06-16T00:25:14.268Z,10.10
2018-06-16T00:27:42.641Z,8.47
2018-06-16T00:30:11.126Z,8.83
2018-06-16T00:32:39.581Z,8.40
2018-06-16T00:35:08.089Z,7.53
2018-06-16T00:37:36.664Z,7.07
2018-06-16T00:40:05.535Z,9.13
2018-06-16T00:42:34.229Z,7.77
2018-06-16T00:45:02.851Z,7.57
2018-06-16T00:47:31.518Z,8.00
2018-06-16T00:50:00.154Z,7.80
2018-06-16T00:52:28.838Z,8.80
2018-06-16T00:54:57.199Z,8.10
2018-06-16T00:57:44.858Z,7.77
2018-06-16T01:00:13.372Z,7.70
2018-06-16T01:02:41.850Z,8.00
2018-06-16T01:05:11.028Z,7.90
2018-06-16T01:07:39.517Z,8.53
2018-06-16T01:10:09.460Z,9.10
2018-06-16T01:12:37.888Z,8.20
2018-06-16T01:15:06.494Z,8.00
2018-06-16T01:17:34.966Z,8.50
2018-06-16T01:20:03.478Z,9.17
2018-06-16T01:22:32.622Z,8.60
2018-06-16T01:25:01.255Z,8.10
2018-06-16T01:27:30.278Z,9.07
2018-06-16T01:29:58.938Z,8.77
2018-06-16T01:32:27.322Z,9.10
2018-06-16T01:34:55.905Z,8.63
2018-06-16T01:37:24.076Z,9.57
2018-06-16T01:39:52.516Z,9.30
2018-06-16T01:42:20.942Z,9.70
2018-06-16T01:44:49.275Z,9.23
2018-06-16T01:47:17.605Z,8.60
2018-06-16T01:49:46.008Z,10.03
2018-06-16T01:52:14.663Z,10.03
2018-06-16T01:54:43.226Z,9.20
2018-06-16T01:57:11.569Z,8.77
2018-06-16T01:59:40.051Z,9.73
2018-06-16T02:02:08.794Z,8.70
2018-06-16T02:04:37.388Z,8.67
2018-06-16T02:07:05.815Z,7.10
2018-06-16T02:09:34.341Z,8.47
2018-06-16T02:12:03.217Z,10.07
2018-06-16T02:14:31.901Z,8.67
2018-06-16T02:17:00.388Z,9.63
2018-06-16T02:19:28.928Z,9.60
2018-06-16T02:21:57.245Z,9.13
2018-06-16T02:24:25.446Z,9.03
2018-06-16T02:26:54.137Z,10.10
2018-06-16T02:29:22.790Z,10.70
2018-06-16T02:31:51.457Z,10.20
2018-06-16T02:34:20.171Z,9.73
2018-06-16T02:36:48.848Z,10.73
2018-06-16T02:39:17.597Z,8.93
2018-06-16T02:41:46.242Z,9.57
2018-06-16T02:44:14.967Z,9.60
2018-06-16T02:46:43.722Z,10.27
2018-06-16T02:49:12.071Z,9.00
2018-06-16T02:51:40.529Z,9.90
2018-06-16T02:54:08.744Z,9.47
2018-06-16T02:56:37.172Z,10.10
2018-06-16T02:59:05.703Z,8.10
2018-06-16T03:01:34.508Z,8.60
2018-06-16T03:04:03.090Z,10.40
2018-06-16T03:06:31.710Z,9.17
2018-06-16T03:09:00.612Z,9.90
2018-06-16T03:11:29.195Z,8.57
2018-06-16T03:13:57.804Z,8.10
2018-06-16T03:16:26.495Z,10.10
2018-06-16T03:18:55.067Z,8.93
2018-06-16T03:21:23.976Z,8.17
2018-06-16T03:23:52.791Z,8.43
2018-06-16T03:26:21.759Z,7.70
2018-06-16T03:28:50.255Z,7.93
2018-06-16T03:31:18.766Z,7.70
2018-06-16T03:33:47.479Z,8.53
2018-06-16T03:36:15.927Z,7.80
2018-06-16T03:38:44.567Z,7.50
2018-06-16T03:41:13.247Z,9.23
2018-06-16T03:43:42.147Z,7.67
2018-06-16T03:46:10.746Z,8.10
2018-06-16T03:48:39.247Z,7.73
2018-06-16T03:51:07.794Z,7.80
2018-06-16T03:53:36.449Z,7.60
2018-06-16T03:56:05.123Z,7.40
2018-06-16T03:58:33.509Z,8.20
2018-06-16T04:01:02.126Z,6.73
2018-06-16T04:03:30.550Z,7.17
2018-06-16T04:05:59.357Z,6.67
2018-06-16T04:08:27.730Z,6.20
2018-06-16T04:10:56.359Z,6.93
2018-06-16T04:13:25.316Z,7.00
2018-06-16T04:15:53.935Z,6.87
2018-06-16T04:18:22.476Z,6.47
2018-06-16T04:20:50.828Z,7.53
2018-06-16T04:23:19.353Z,7.07
2018-06-16T04:25:48.177Z,7.93
2018-06-16T04:28:17.040Z,7.60
2018-06-16T04:30:45.851Z,6.90
2018-06-16T04:33:14.446Z,8.20
2018-06-16T04:35:43.304Z,7.00
2018-06-16T04:38:11.894Z,8.00
2018-06-16T04:40:40.647Z,5.67
2018-06-16T04:43:09.076Z,7.07
2018-06-16T04:45:38.382Z,6.77
2018-06-16T04:48:06.943Z,7.47
2018-06-16T04:50:35.745Z,7.30
2018-06-16T04:53:04.262Z,6.33
2018-06-16T04:55:32.701Z,8.30
2018-06-16T04:58:01.249Z,8.17
2018-06-16T05:00:29.742Z,8.67
2018-06-16T05:02:58.609Z,7.10
2018-06-16T05:05:27.527Z,6.97
2018-06-16T05:07:56.245Z,7.60
2018-06-16T05:10:24.595Z,8.20
2018-06-16T05:12:53.371Z,7.57
2018-06-16T05:15:21.827Z,7.70
2018-06-16T05:17:50.266Z,7.17
2018-06-16T05:20:18.660Z,7.90
2018-06-16T05:22:47.092Z,6.67
2018-06-16T05:25:15.700Z,7.53
2018-06-16T05:27:43.774Z,7.30
2018-06-16T05:30:12.254Z,6.57
2018-06-16T05:32:40.670Z,8.47
2018-06-16T05:35:10.496Z,8.23
2018-06-16T05:37:39.060Z,32.17
2018-06-16T05:40:07.562Z,7.10
2018-06-16T05:42:36.063Z,7.03
2018-06-16T05:45:17.843Z,8.50
2018-06-16T05:47:48.086Z,10.00
2018-06-16T05:50:16.648Z,8.30
2018-06-16T05:52:45.382Z,7.60
2018-06-16T05:55:13.720Z,7.20
2018-06-16T06:00:59.013Z,7.00
2018-06-16T06:03:27.657Z,6.60
2018-06-16T06:05:56.351Z,7.33
2018-06-16T06:08:24.789Z,7.90
2018-06-16T06:10:53.182Z,7.47
2018-06-16T06:13:21.685Z,7.23
2018-06-16T06:15:50.046Z,6.70
2018-06-16T06:18:18.395Z,9.00
2018-06-16T06:20:46.934Z,7.80
2018-06-16T06:23:15.422Z,7.27
2018-06-16T06:25:44.274Z,7.80
2018-06-16T06:28:12.781Z,7.23
2018-06-16T06:30:41.372Z,7.70
2018-06-16T06:33:10.440Z,9.23
2018-06-16T06:35:39.156Z,6.73
2018-06-16T06:38:07.813Z,8.00
2018-06-16T06:40:36.971Z,7.70
2018-06-16T06:43:06.079Z,8.37
2018-06-16T06:45:35.185Z,8.40
2018-06-16T06:48:04.390Z,7.93
2018-06-16T06:50:33.244Z,8.10
2018-06-16T06:53:02.358Z,7.23
2018-06-16T06:55:30.948Z,8.40
2018-06-16T06:57:59.581Z,7.30
2018-06-16T07:00:28.372Z,8.30
2018-06-16T07:02:56.856Z,6.73
2018-06-16T07:05:25.339Z,7.63
2018-06-16T07:07:53.950Z,8.20
2018-06-16T07:10:22.657Z,7.67
2018-06-16T07:12:51.578Z,6.93
2018-06-16T07:15:19.925Z,9.90
2018-06-16T07:17:48.711Z,8.10
2018-06-16T07:20:17.741Z,8.30
2018-06-16T07:22:46.645Z,6.53
2018-06-16T07:25:15.613Z,7.70
2018-06-16T07:27:44.622Z,9.57
2018-06-16T07:30:13.339Z,8.87
2018-06-16T07:32:42.340Z,8.50
2018-06-16T07:35:13.021Z,7.97
2018-06-16T07:37:41.366Z,7.90
2018-06-16T07:40:10.440Z,7.87
2018-06-16T07:42:39.008Z,7.83
2018-06-16T07:45:07.885Z,9.63
2018-06-16T07:47:36.864Z,9.73
2018-06-16T07:50:05.564Z,8.33
2018-06-16T07:52:41.799Z,9.37
2018-06-16T07:55:10.570Z,9.60
2018-06-16T07:57:39.299Z,9.00
2018-06-16T08:00:07.372Z,9.90
2018-06-16T08:02:36.371Z,8.50
2018-06-16T08:05:05.257Z,14.57
2018-06-16T08:07:33.767Z,10.37
2018-06-16T08:10:02.594Z,8.80
2018-06-16T08:12:31.344Z,9.37
2018-06-16T08:15:00.297Z,8.90
2018-06-16T08:17:28.687Z,9.23
2018-06-16T08:19:57.176Z,9.80
2018-06-16T08:22:25.297Z,10.07
2018-06-16T08:24:53.914Z,9.30
2018-06-16T08:27:22.332Z,7.83
2018-06-16T08:29:51.040Z,8.57
2018-06-16T08:32:19.673Z,9.43
2018-06-16T08:34:48.611Z,8.90
2018-06-16T08:37:17.001Z,7.97
2018-06-16T08:39:45.659Z,8.30
2018-06-16T08:42:14.384Z,9.07
2018-06-16T08:44:42.794Z,8.60
2018-06-16T08:47:11.082Z,8.07
2018-06-16T08:49:39.483Z,8.53
2018-06-16T08:52:08.102Z,8.10
2018-06-16T08:54:36.502Z,7.70
2018-06-16T08:57:05.045Z,8.17
2018-06-16T08:59:33.662Z,7.40
2018-06-16T09:02:02.362Z,8.03
2018-06-16T09:04:31.046Z,8.20
2018-06-16T09:06:59.554Z,8.10
2018-06-16T09:09:28.040Z,8.57
2018-06-16T09:11:56.718Z,7.50
2018-06-16T09:14:25.125Z,7.07
2018-06-16T09:16:53.818Z,8.90
2018-06-16T09:19:22.651Z,8.00
2018-06-16T09:21:51.752Z,8.93
2018-06-16T09:24:21.159Z,7.13
2018-06-16T09:26:49.796Z,7.80
2018-06-16T09:29:18.578Z,7.43
2018-06-16T09:31:47.021Z,8.37
2018-06-16T09:34:15.863Z,7.70
2018-06-16T09:36:44.683Z,8.00
2018-06-16T09:39:13.169Z,6.83
2018-06-16T09:41:42.095Z,7.57
2018-06-16T09:44:10.778Z,7.27
2018-06-16T09:46:39.683Z,6.97
2018-06-16T09:49:08.331Z,6.97
2018-06-16T09:51:36.905Z,8.30
2018-06-16T09:54:06.104Z,8.10
2018-06-16T09:56:34.598Z,7.47
2018-06-16T09:59:03.057Z,7.47
2018-06-16T10:01:31.776Z,7.30
2018-06-16T10:04:00.438Z,8.63
2018-06-16T10:06:28.975Z,8.03
2018-06-16T10:08:57.587Z,7.90
2018-06-16T10:11:26.334Z,8.67
2018-06-16T10:13:54.888Z,7.80
2018-06-16T10:16:24.190Z,8.03
2018-06-16T10:18:52.678Z,7.20
2018-06-16T10:21:21.519Z,7.90
2018-06-16T10:23:49.972Z,7.13
2018-06-16T10:26:18.622Z,7.67
2018-06-16T10:28:47.162Z,8.23
2018-06-16T10:31:15.864Z,7.90
2018-06-16T10:33:44.463Z,8.20
2018-06-16T10:36:13.226Z,7.37
2018-06-16T10:38:42.054Z,7.27
2018-06-16T10:41:10.626Z,8.50
2018-06-16T10:43:39.037Z,7.60
2018-06-16T10:46:07.723Z,5.90
2018-06-16T10:48:36.444Z,7.17
2018-06-16T10:51:05.040Z,6.70
2018-06-16T10:53:33.767Z,6.80
2018-06-16T10:56:02.030Z,7.33
2018-06-16T10:58:30.615Z,6.33
2018-06-16T11:00:59.039Z,5.93
2018-06-16T11:03:27.491Z,6.40
2018-06-16T11:05:57.823Z,5.80
2018-06-16T11:08:26.382Z,6.20
2018-06-16T11:10:55.083Z,6.40
2018-06-16T11:13:23.565Z,6.43
2018-06-16T11:15:52.029Z,5.70
2018-06-16T11:18:20.522Z,6.80
2018-06-16T11:20:49.131Z,6.63
2018-06-16T11:23:17.504Z,7.30
2018-06-16T11:25:46.036Z,5.40
2018-06-16T11:28:14.818Z,6.40
2018-06-16T11:30:43.147Z,6.40
2018-06-16T11:33:11.950Z,5.20
2018-06-16T11:35:40.375Z,4.90
2018-06-16T11:38:08.907Z,6.00
2018-06-16T11:40:37.351Z,5.80
2018-06-16T11:43:05.815Z,6.33
2018-06-16T11:45:34.303Z,5.73
2018-06-16T11:48:02.737Z,5.70
2018-06-16T11:50:31.165Z,5.77
2018-06-16T11:52:59.459Z,6.10
2018-06-16T11:55:27.752Z,6.53
2018-06-16T11:57:56.209Z,6.07
2018-06-16T12:00:24.510Z,5.40
2018-06-16T12:02:52.784Z,5.80
2018-06-16T12:05:21.234Z,5.87
2018-06-16T12:07:51.580Z,5.40
2018-06-16T12:10:20.161Z,5.50
2018-06-16T12:12:48.547Z,5.30
2018-06-16T12:15:16.825Z,4.00
2018-06-16T12:17:45.180Z,4.40
2018-06-16T12:20:13.595Z,5.13
2018-06-16T12:22:42.038Z,4.93
2018-06-16T12:25:10.621Z,4.30
2018-06-16T12:27:38.713Z,4.83
2018-06-16T12:30:07.178Z,5.03
2018-06-16T12:32:35.493Z,5.50
2018-06-16T12:35:04.067Z,4.50
2018-06-16T12:37:32.553Z,10.97
2018-06-16T12:40:00.931Z,3.87
2018-06-16T12:42:29.332Z,5.33
2018-06-16T12:44:57.650Z,5.13
2018-06-16T12:47:26.066Z,4.10
2018-06-16T12:49:54.408Z,4.47
2018-06-16T12:52:22.918Z,3.60
2018-06-16T12:54:51.317Z,3.67
2018-06-16T12:57:19.746Z,3.90
2018-06-16T12:59:48.304Z,4.37
2018-06-16T13:02:16.668Z,4.60
2018-06-16T13:04:44.998Z,4.90
2018-06-16T13:07:13.918Z,4.83
2018-06-16T13:09:42.302Z,4.50
2018-06-16T13:12:10.638Z,3.90
2018-06-16T13:14:39.162Z,4.73
2018-06-16T13:17:07.705Z,4.60
2018-06-16T13:19:36.091Z,4.30
2018-06-16T13:22:04.990Z,4.67
2018-06-16T13:24:33.363Z,3.37
2018-06-16T13:27:01.841Z,3.40
2018-06-16T13:29:30.281Z,3.80
2018-06-16T13:31:58.553Z,4.90
2018-06-16T13:34:26.894Z,4.40
2018-06-16T13:36:55.145Z,4.43
2018-06-16T13:39:23.394Z,3.80
2018-06-16T13:41:51.917Z,3.90
2018-06-16T13:44:20.379Z,3.77
2018-06-16T13:46:48.624Z,4.20
2018-06-16T13:49:17.161Z,4.47
2018-06-16T13:51:45.571Z,4.40
2018-06-16T13:54:13.931Z,4.30
2018-06-16T13:56:42.470Z,4.27
2018-06-16T13:59:10.693Z,4.23
2018-06-16T14:01:39.082Z,4.20
2018-06-16T14:04:07.401Z,3.97
2018-06-16T14:06:35.681Z,3.83
2018-06-16T14:09:06.077Z,4.33
2018-06-16T14:11:34.506Z,3.70
2018-06-16T14:14:02.995Z,3.77
2018-06-16T14:16:31.703Z,4.13
2018-06-16T14:19:00.220Z,4.40
2018-06-16T14:21:28.568Z,4.60
2018-06-16T14:23:56.921Z,4.17
2018-06-16T14:26:25.262Z,4.37
2018-06-16T14:28:53.816Z,3.77
2018-06-16T14:31:22.114Z,3.90
2018-06-16T14:33:50.915Z,4.50
2018-06-16T14:36:20.548Z,3.90
2018-06-16T14:38:49.039Z,4.40
2018-06-16T14:41:17.326Z,4.70
2018-06-16T14:43:45.607Z,4.70
2018-06-16T14:46:13.946Z,4.17
2018-06-16T14:48:42.415Z,5.23
2018-06-16T14:51:10.416Z,5.13
2018-06-16T14:53:38.791Z,4.40
2018-06-16T14:56:07.094Z,4.40
2018-06-16T14:58:35.330Z,4.23
2018-06-16T15:01:03.621Z,4.13
2018-06-16T15:03:31.954Z,4.37
2018-06-16T15:05:59.951Z,4.10
2018-06-16T15:08:28.354Z,3.40
2018-06-16T15:10:56.706Z,3.73
2018-06-16T15:13:25.185Z,3.80
2018-06-16T15:15:53.531Z,3.90
2018-06-16T15:18:21.778Z,4.07
2018-06-16T15:20:50.319Z,3.47
2018-06-16T15:23:18.886Z,4.40
2018-06-16T15:25:47.296Z,3.70
2018-06-16T15:28:15.734Z,4.30
2018-06-16T15:30:43.998Z,4.50
2018-06-16T15:33:12.429Z,3.90
2018-06-16T15:35:41.040Z,5.10
2018-06-16T15:38:09.416Z,4.30
2018-06-16T15:40:37.736Z,4.10
2018-06-16T15:43:06.136Z,4.23
2018-06-16T15:45:34.534Z,4.30
2018-06-16T15:48:02.895Z,4.77
2018-06-16T15:50:31.187Z,4.70
2018-06-16T15:52:59.566Z,4.27
2018-06-16T15:55:28.746Z,5.10
2018-06-16T15:57:57.173Z,4.40
2018-06-16T16:00:25.257Z,4.60
2018-06-16T16:02:54.515Z,5.60
2018-06-16T16:05:24.025Z,4.53
2018-06-16T16:07:52.457Z,6.07
2018-06-16T16:10:21.271Z,5.53
2018-06-16T16:12:49.632Z,5.43
2018-06-16T16:15:18.279Z,5.17
2018-06-16T16:17:46.680Z,5.50
2018-06-16T16:20:14.969Z,4.70
2018-06-16T16:22:43.344Z,5.63
2018-06-16T16:25:11.757Z,5.10
2018-06-16T16:27:40.096Z,5.30
2018-06-16T16:30:08.527Z,4.93
2018-06-16T16:32:36.645Z,5.67
2018-06-16T16:35:05.141Z,5.00
2018-06-16T16:37:33.726Z,4.47
2018-06-16T16:40:02.131Z,4.83
2018-06-16T16:42:30.896Z,6.17
2018-06-16T16:44:59.448Z,4.80
2018-06-16T16:47:27.787Z,4.20
2018-06-16T16:49:56.173Z,5.60
2018-06-16T16:52:24.654Z,5.87
2018-06-16T16:54:53.742Z,4.47
2018-06-16T16:57:22.347Z,4.87
2018-06-16T16:59:50.755Z,5.70
2018-06-16T17:02:19.293Z,4.30
2018-06-16T17:04:47.709Z,5.27
2018-06-16T17:07:16.079Z,4.47
2018-06-16T17:09:44.551Z,4.50
2018-06-16T17:12:13.071Z,4.73
2018-06-16T17:14:41.559Z,4.03
2018-06-16T17:17:10.073Z,5.20
2018-06-16T17:19:38.555Z,4.20
2018-06-16T17:22:06.934Z,4.23
2018-06-16T17:24:35.695Z,4.07
2018-06-16T17:27:04.031Z,4.47
2018-06-16T17:29:32.268Z,4.70
2018-06-16T17:32:00.717Z,5.33
2018-06-16T17:34:29.264Z,4.40
2018-06-16T17:36:57.646Z,4.00
2018-06-16T17:39:27.012Z,5.10
2018-06-16T17:41:55.508Z,4.30
2018-06-16T17:44:23.851Z,4.07
2018-06-16T17:46:52.237Z,4.93
2018-06-16T17:49:20.533Z,4.67
2018-06-16T17:51:48.943Z,4.50
2018-06-16T17:54:17.433Z,3.90
2018-06-16T17:56:45.824Z,4.20
2018-06-16T17:59:14.244Z,3.57
2018-06-16T18:01:57.850Z,4.20
2018-06-16T18:04:26.346Z,3.92
2018-06-16T18:06:55.010Z,4.13
2018-06-16T18:09:23.543Z,4.60
2018-06-16T18:11:52.005Z,4.33
2018-06-16T18:14:20.390Z,4.53
2018-06-16T18:16:48.844Z,4.47
2018-06-16T18:19:17.304Z,4.50
2018-06-16T18:21:45.777Z,4.80
2018-06-16T18:24:14.141Z,6.13
2018-06-16T18:26:42.638Z,5.47
2018-06-16T18:29:11.321Z,4.77
2018-06-16T18:31:39.863Z,5.33
2018-06-16T18:34:08.199Z,5.13
2018-06-16T18:36:36.766Z,4.43
2018-06-16T18:39:07.636Z,5.87
2018-06-16T18:41:36.109Z,5.63
2018-06-16T18:44:04.740Z,5.20
2018-06-16T18:46:32.771Z,5.33
2018-06-16T18:49:01.062Z,5.37
2018-06-16T18:51:29.128Z,5.30
2018-06-16T18:53:57.610Z,4.90
2018-06-16T18:56:25.954Z,4.30
2018-06-16T18:58:54.572Z,6.27
2018-06-16T19:01:22.918Z,5.20
2018-06-16T19:03:51.375Z,5.13
2018-06-16T19:06:20.355Z,5.27
2018-06-16T19:08:48.646Z,5.33
2018-06-16T19:11:17.023Z,5.00
2018-06-16T19:13:45.435Z,5.07
2018-06-16T19:16:13.630Z,5.53
2018-06-16T19:18:41.963Z,5.37
2018-06-16T19:21:11.182Z,6.20
2018-06-16T19:23:39.477Z,5.73
2018-06-16T19:26:07.796Z,6.50
2018-06-16T19:28:36.221Z,6.03
2018-06-16T19:31:04.591Z,7.23
2018-06-16T19:33:32.739Z,6.20
2018-06-16T19:36:01.231Z,6.03
2018-06-16T19:38:29.622Z,6.67
2018-06-16T19:40:57.978Z,7.70
2018-06-16T19:43:25.969Z,6.80
2018-06-16T19:45:55.176Z,7.70
2018-06-16T19:48:23.606Z,11.53
2018-06-16T19:50:51.954Z,12.97
2018-06-16T19:53:20.299Z,20.20
2018-06-16T19:55:48.883Z,21.37
2018-06-16T19:58:17.387Z,9.60
2018-06-16T20:00:45.776Z,10.63
2018-06-16T20:03:14.253Z,11.67
2018-06-16T20:05:42.699Z,42.90
2018-06-16T20:08:11.044Z,8.87
2018-06-16T20:10:39.448Z,8.97
2018-06-16T20:13:07.918Z,8.67
2018-06-16T20:15:36.225Z,8.67
2018-06-16T20:18:04.638Z,11.17
2018-06-16T20:20:32.902Z,11.17
2018-06-16T20:23:01.158Z,10.53
2018-06-16T20:25:29.622Z,12.30
2018-06-16T20:27:58.023Z,23.70
2018-06-16T20:30:26.404Z,28.20
2018-06-16T20:32:54.854Z,19.27
2018-06-16T20:35:23.234Z,20.00
2018-06-16T20:37:51.826Z,16.93
2018-06-16T20:40:20.310Z,20.73
2018-06-16T20:42:49.026Z,20.37
2018-06-16T20:45:17.603Z,17.60
2018-06-16T20:47:46.074Z,17.20
2018-06-16T20:50:14.418Z,15.17
2018-06-16T20:52:43.331Z,15.50
2018-06-16T20:55:11.724Z,13.90
2018-06-16T20:57:40.087Z,14.70
2018-06-16T21:00:21.011Z,13.07
2018-06-16T21:02:49.346Z,10.23
2018-06-16T21:05:17.860Z,9.20
2018-06-16T21:07:46.128Z,8.63
2018-06-16T21:10:14.556Z,8.10
2018-06-16T21:12:43.353Z,8.63
2018-06-16T21:15:11.750Z,8.87
2018-06-16T21:17:40.243Z,9.30
2018-06-16T21:20:08.674Z,16.50
2018-06-16T21:22:37.115Z,16.93
2018-06-16T21:25:05.290Z,12.83
2018-06-16T21:27:33.979Z,12.17
2018-06-16T21:30:02.569Z,8.50
2018-06-16T21:32:30.949Z,6.70
2018-06-16T21:34:59.365Z,6.70
2018-06-16T21:37:27.776Z,6.57
2018-06-16T21:39:56.330Z,5.93
2018-06-16T21:42:24.751Z,6.07
2018-06-16T21:44:53.222Z,5.30
2018-06-16T21:47:21.623Z,5.60
2018-06-16T21:49:49.940Z,5.00
2018-06-16T21:52:18.371Z,11.20
2018-06-16T21:54:46.712Z,7.00
2018-06-16T21:57:15.094Z,4.97
2018-06-16T21:59:43.397Z,4.43
2018-06-16T22:02:11.871Z,4.80
2018-06-16T22:04:40.295Z,3.90
2018-06-16T22:07:08.903Z,3.40
2018-06-16T22:09:37.245Z,4.00
2018-06-16T22:12:05.296Z,3.57
2018-06-16T22:14:33.786Z,3.90
2018-06-16T22:17:02.140Z,3.53
2018-06-16T22:19:30.201Z,3.20
2018-06-16T22:21:58.576Z,3.40
2018-06-16T22:24:26.982Z,3.40
2018-06-16T22:26:55.340Z,4.00
2018-06-16T22:29:23.817Z,4.30
2018-06-16T22:31:52.203Z,4.27
2018-06-16T22:34:20.672Z,3.27
2018-06-16T22:36:49.104Z,4.30
2018-06-16T22:39:17.580Z,3.63
2018-06-16T22:41:45.931Z,6.70
2018-06-16T22:44:14.289Z,4.07
2018-06-16T22:46:42.779Z,3.77
2018-06-16T22:49:11.405Z,3.70
2018-06-16T22:51:39.774Z,5.30
2018-06-16T22:54:08.418Z,3.90
2018-06-16T22:56:37.019Z,3.33
2018-06-16T22:59:05.418Z,2.70
2018-06-16T23:01:33.866Z,2.90
2018-06-16T23:04:02.245Z,3.63
2018-06-16T23:06:30.659Z,2.93
2018-06-16T23:08:59.161Z,3.50
2018-06-16T23:11:27.617Z,3.40
2018-06-16T23:13:55.797Z,2.83
2018-06-16T23:16:24.168Z,3.77
2018-06-16T23:18:52.550Z,3.90
2018-06-16T23:21:20.947Z,3.73
2018-06-16T23:23:49.401Z,4.07
2018-06-16T23:26:17.804Z,3.37
2018-06-16T23:28:46.195Z,3.00
2018-06-16T23:31:14.639Z,3.30
2018-06-16T23:33:43.106Z,3.50
2018-06-16T23:36:11.522Z,3.57
2018-06-16T23:38:39.975Z,3.33
2018-06-16T23:41:08.320Z,2.63
2018-06-16T23:43:36.738Z,2.50
2018-06-16T23:46:05.215Z,3.37
2018-06-16T23:48:33.769Z,3.60
2018-06-16T23:51:01.901Z,3.50
2018-06-16T23:53:30.173Z,3.43
2018-06-16T23:55:58.519Z,3.50
2018-06-16T23:58:26.825Z,4.30
